createdAt,value
2017-09-29T00:00:28.450Z,35.77
2017-09-29T00:02:56.746Z,36.20
2017-09-29T00:05:24.282Z,35.37
2017-09-29T00:07:52.579Z,33.70
2017-09-29T00:10:20.158Z,33.27
2017-09-29T00:12:47.706Z,33.90
2017-09-29T00:15:15.268Z,34.37
2017-09-29T00:17:42.807Z,35.90
2017-09-29T00:20:11.133Z,33.83
2017-09-29T00:22:38.674Z,33.40
2017-09-29T00:25:06.240Z,34.73
2017-09-29T00:27:33.774Z,34.30
2017-09-29T00:30:02.081Z,33.70
2017-09-29T00:32:29.612Z,34.20
2017-09-29T00:34:57.931Z,34.10
2017-09-29T00:37:25.463Z,34.67
2017-09-29T00:39:53.007Z,35.00
2017-09-29T00:42:21.327Z,32.50
2017-09-29T00:44:48.871Z,32.43
2017-09-29T00:47:16.426Z,33.97
2017-09-29T00:49:43.959Z,34.27
2017-09-29T00:52:12.294Z,33.57
2017-09-29T00:54:39.831Z,31.80
2017-09-29T00:57:07.418Z,33.43
2017-09-29T00:59:34.947Z,33.07
2017-09-29T01:02:02.478Z,33.30
2017-09-29T01:04:30.779Z,32.93
2017-09-29T01:06:58.315Z,32.93
2017-09-29T01:09:26.610Z,32.20
2017-09-29T01:11:54.916Z,31.93
2017-09-29T01:14:22.478Z,32.57
2017-09-29T01:16:50.022Z,32.87
2017-09-29T01:19:17.578Z,33.47
2017-09-29T01:21:45.118Z,32.80
2017-09-29T01:24:13.451Z,32.97
2017-09-29T01:26:40.983Z,31.63
2017-09-29T01:29:08.563Z,31.57
2017-09-29T01:31:36.103Z,32.50
2017-09-29T01:34:03.644Z,33.37
2017-09-29T01:36:31.939Z,31.97
2017-09-29T01:38:59.471Z,34.13
2017-09-29T01:41:27.794Z,32.97
2017-09-29T01:43:55.326Z,29.87
2017-09-29T01:46:23.663Z,31.37
2017-09-29T01:48:51.194Z,32.60
2017-09-29T01:51:18.722Z,31.10
2017-09-29T01:53:47.020Z,34.13
2017-09-29T01:56:14.559Z,34.90
2017-09-29T01:58:42.874Z,33.53
2017-09-29T02:01:10.536Z,33.10
2017-09-29T02:03:38.209Z,32.57
2017-09-29T02:06:05.871Z,31.67
2017-09-29T02:08:33.609Z,32.20
2017-09-29T02:11:01.239Z,31.53
2017-09-29T02:13:29.031Z,30.73
2017-09-29T02:15:57.411Z,33.30
2017-09-29T02:18:26.086Z,32.40
2017-09-29T02:20:54.606Z,31.50
2017-09-29T02:23:22.531Z,33.03
2017-09-29T02:25:53.284Z,33.40
2017-09-29T02:28:22.093Z,35.00
2017-09-29T02:30:49.976Z,32.60
2017-09-29T02:33:18.650Z,31.90
2017-09-29T02:35:48.443Z,32.30
2017-09-29T02:38:19.941Z,33.30
2017-09-29T02:40:48.199Z,34.20
2017-09-29T02:43:16.479Z,32.83
2017-09-29T02:45:44.652Z,32.13
2017-09-29T02:48:13.506Z,32.10
2017-09-29T02:50:42.096Z,31.20
2017-09-29T02:53:10.501Z,34.30
2017-09-29T02:55:38.240Z,32.90
2017-09-29T02:58:07.329Z,32.03
2017-09-29T03:03:13.744Z,31.57
2017-09-29T03:05:43.426Z,32.40
2017-09-29T03:08:10.963Z,30.17
2017-09-29T03:10:38.495Z,31.57
2017-09-29T03:13:06.032Z,28.77
2017-09-29T03:15:34.337Z,33.33
2017-09-29T03:18:01.874Z,29.80
2017-09-29T03:20:30.171Z,33.00
2017-09-29T03:22:57.741Z,33.70
2017-09-29T03:25:25.274Z,31.13
2017-09-29T03:27:53.606Z,32.53
2017-09-29T03:30:21.206Z,32.70
2017-09-29T03:32:49.611Z,31.23
2017-09-29T03:35:17.150Z,31.00
2017-09-29T03:37:45.446Z,32.13
2017-09-29T03:40:13.036Z,32.40
2017-09-29T03:42:40.571Z,29.40
2017-09-29T03:45:08.107Z,31.20
2017-09-29T03:47:36.426Z,32.87
2017-09-29T03:50:06.287Z,28.83
2017-09-29T03:52:38.137Z,29.30
2017-09-29T03:55:05.965Z,27.87
2017-09-29T03:57:34.959Z,27.03
2017-09-29T04:00:02.586Z,28.00
2017-09-29T04:02:30.139Z,27.00
2017-09-29T04:04:57.743Z,31.63
2017-09-29T04:07:25.284Z,31.80
2017-09-29T04:09:53.628Z,32.87
2017-09-29T04:12:21.193Z,30.93
2017-09-29T04:14:48.771Z,30.87
2017-09-29T04:17:17.182Z,31.20
2017-09-29T04:19:44.754Z,30.90
2017-09-29T04:22:12.332Z,29.93
2017-09-29T04:24:39.875Z,28.27
2017-09-29T04:27:07.465Z,31.30
2017-09-29T04:29:35.023Z,28.00
2017-09-29T04:32:02.610Z,31.67
2017-09-29T04:34:30.247Z,28.93
2017-09-29T04:36:57.833Z,28.47
2017-09-29T04:39:25.483Z,33.93
2017-09-29T04:41:53.081Z,33.00
2017-09-29T04:44:22.792Z,31.57
2017-09-29T04:46:50.376Z,31.97
2017-09-29T04:49:17.915Z,32.80
2017-09-29T04:51:46.230Z,30.43
2017-09-29T04:54:13.795Z,32.40
2017-09-29T04:56:41.354Z,31.30
2017-09-29T04:59:08.951Z,30.80
2017-09-29T05:01:36.576Z,29.57
2017-09-29T05:04:04.137Z,30.20
2017-09-29T05:06:31.695Z,30.53
2017-09-29T05:08:59.281Z,31.40
2017-09-29T05:11:26.821Z,28.63
2017-09-29T05:13:54.392Z,30.03
2017-09-29T05:16:22.031Z,28.13
2017-09-29T05:18:49.597Z,29.07
2017-09-29T05:21:17.134Z,26.50
2017-09-29T05:23:44.716Z,34.07
2017-09-29T05:26:12.374Z,34.93
2017-09-29T05:28:39.960Z,33.77
2017-09-29T05:31:07.525Z,36.07
2017-09-29T05:33:35.076Z,34.30
2017-09-29T05:36:02.672Z,30.20
2017-09-29T05:38:30.230Z,29.50
2017-09-29T05:40:57.786Z,27.83
2017-09-29T05:43:25.327Z,29.07
2017-09-29T05:45:52.901Z,29.30
2017-09-29T05:48:20.481Z,28.20
2017-09-29T05:50:48.803Z,26.97
2017-09-29T05:53:16.347Z,27.43
2017-09-29T05:55:43.892Z,28.80
2017-09-29T05:58:12.391Z,28.77
2017-09-29T06:00:39.943Z,24.50
2017-09-29T06:03:07.505Z,28.57
2017-09-29T06:05:35.061Z,28.70
2017-09-29T06:08:03.430Z,26.67
2017-09-29T06:10:31.744Z,28.50
2017-09-29T06:12:59.303Z,30.70
2017-09-29T06:15:26.837Z,31.60
2017-09-29T06:17:55.179Z,30.83
2017-09-29T06:20:22.715Z,29.67
2017-09-29T06:22:50.283Z,30.43
2017-09-29T06:25:17.822Z,30.27
2017-09-29T06:27:45.351Z,31.77
2017-09-29T06:30:13.687Z,31.73
2017-09-29T06:32:41.224Z,30.50
2017-09-29T06:35:08.756Z,30.50
2017-09-29T06:37:37.080Z,32.97
2017-09-29T06:40:04.610Z,30.87
2017-09-29T06:42:32.138Z,31.70
2017-09-29T06:44:59.667Z,31.33
2017-09-29T06:47:27.194Z,30.00
2017-09-29T06:49:54.728Z,30.67
2017-09-29T06:52:23.027Z,31.73
2017-09-29T06:54:50.557Z,32.23
2017-09-29T06:57:18.095Z,31.87
2017-09-29T06:59:45.655Z,31.67
2017-09-29T07:02:13.218Z,32.10
2017-09-29T07:04:40.778Z,32.43
2017-09-29T07:07:08.306Z,31.83
2017-09-29T07:09:35.843Z,31.60
2017-09-29T07:12:03.372Z,32.43
2017-09-29T07:14:30.914Z,32.70
2017-09-29T07:16:58.447Z,30.13
2017-09-29T07:19:25.978Z,30.50
2017-09-29T07:21:54.280Z,30.00
2017-09-29T07:24:21.818Z,30.13
2017-09-29T07:26:51.351Z,29.80
2017-09-29T07:29:19.375Z,29.47
2017-09-29T07:31:48.315Z,31.20
2017-09-29T07:34:15.855Z,31.13
2017-09-29T07:36:43.432Z,33.73
2017-09-29T07:39:10.976Z,30.53
2017-09-29T07:41:38.510Z,30.17
2017-09-29T07:44:06.039Z,29.40
2017-09-29T07:46:33.567Z,30.60
2017-09-29T07:49:01.105Z,30.73
2017-09-29T07:51:29.399Z,33.40
2017-09-29T07:53:56.936Z,31.63
2017-09-29T07:56:25.234Z,32.83
2017-09-29T07:58:52.787Z,33.07
2017-09-29T08:01:20.327Z,30.70
2017-09-29T08:03:47.862Z,31.03
2017-09-29T08:06:15.401Z,30.20
2017-09-29T08:08:42.934Z,31.00
2017-09-29T08:11:10.467Z,31.20
2017-09-29T08:13:38.027Z,31.70
2017-09-29T08:16:05.556Z,30.90
2017-09-29T08:18:33.109Z,32.30
2017-09-29T08:21:00.653Z,32.33
2017-09-29T08:23:28.221Z,31.50
2017-09-29T08:25:55.762Z,32.07
2017-09-29T08:28:23.294Z,32.00
2017-09-29T08:30:51.596Z,30.07
2017-09-29T08:33:19.131Z,30.40
2017-09-29T08:35:47.434Z,29.57
2017-09-29T08:38:14.971Z,30.80
2017-09-29T08:40:43.275Z,32.20
2017-09-29T08:43:10.809Z,29.00
2017-09-29T08:45:39.156Z,29.57
2017-09-29T08:48:06.720Z,30.03
2017-09-29T08:50:34.280Z,29.43
2017-09-29T08:53:01.819Z,29.17
2017-09-29T08:55:29.384Z,30.57
2017-09-29T08:57:56.915Z,31.30
2017-09-29T09:00:24.475Z,29.30
2017-09-29T09:02:52.010Z,29.83
2017-09-29T09:05:20.352Z,30.10
2017-09-29T09:07:47.890Z,30.33
2017-09-29T09:10:15.423Z,30.40
2017-09-29T09:12:43.727Z,28.60
2017-09-29T09:15:11.254Z,30.20
2017-09-29T09:17:39.546Z,30.00
2017-09-29T09:20:07.087Z,29.50
2017-09-29T09:22:35.391Z,29.17
2017-09-29T09:25:02.931Z,30.80
2017-09-29T09:27:31.255Z,30.03
2017-09-29T09:29:58.787Z,33.07
2017-09-29T09:32:26.342Z,33.00
2017-09-29T09:34:54.640Z,30.97
2017-09-29T09:37:22.958Z,29.73
2017-09-29T09:39:50.491Z,29.23
2017-09-29T09:42:18.062Z,29.53
2017-09-29T09:44:45.594Z,31.73
2017-09-29T09:47:13.123Z,30.13
2017-09-29T09:49:41.418Z,31.60
2017-09-29T09:52:09.721Z,28.27
2017-09-29T09:54:37.250Z,31.10
2017-09-29T09:57:05.551Z,30.87
2017-09-29T09:59:33.097Z,30.93
2017-09-29T10:02:00.626Z,31.00
2017-09-29T10:04:28.192Z,28.97
2017-09-29T10:06:55.723Z,30.77
2017-09-29T10:09:23.282Z,27.70
2017-09-29T10:11:50.822Z,27.80
2017-09-29T10:14:18.380Z,29.27
2017-09-29T10:16:45.909Z,28.10
2017-09-29T10:19:14.246Z,27.77
2017-09-29T10:21:41.775Z,28.97
2017-09-29T10:24:09.312Z,27.53
2017-09-29T10:26:37.602Z,27.83
2017-09-29T10:29:05.130Z,27.73
2017-09-29T10:31:32.661Z,27.70
2017-09-29T10:34:00.195Z,26.73
2017-09-29T10:36:27.731Z,26.63
2017-09-29T10:38:56.026Z,27.57
2017-09-29T10:41:23.554Z,27.57
2017-09-29T10:43:51.831Z,27.77
2017-09-29T10:46:20.158Z,26.63
2017-09-29T10:48:47.687Z,27.70
2017-09-29T10:51:15.254Z,26.87
2017-09-29T10:53:42.797Z,26.10
2017-09-29T10:56:11.171Z,27.97
2017-09-29T10:58:39.469Z,28.67
2017-09-29T11:01:07.790Z,27.00
2017-09-29T11:03:35.320Z,27.80
2017-09-29T11:06:05.803Z,26.83
2017-09-29T11:08:33.336Z,26.40
2017-09-29T11:11:00.903Z,27.83
2017-09-29T11:13:28.439Z,26.90
2017-09-29T11:15:55.970Z,27.60
2017-09-29T11:18:24.265Z,28.90
2017-09-29T11:20:51.796Z,28.10
2017-09-29T11:23:20.094Z,27.80
2017-09-29T11:25:48.392Z,26.77
2017-09-29T11:28:15.963Z,28.73
2017-09-29T11:30:43.498Z,27.20
2017-09-29T11:33:11.054Z,28.33
2017-09-29T11:35:39.352Z,28.10
2017-09-29T11:38:06.912Z,24.90
2017-09-29T11:40:34.450Z,25.13
2017-09-29T11:43:02.766Z,26.90
2017-09-29T11:45:30.320Z,23.93
2017-09-29T11:47:57.903Z,26.60
2017-09-29T11:50:26.271Z,24.80
2017-09-29T11:52:53.943Z,23.70
2017-09-29T11:55:22.324Z,23.57
2017-09-29T11:57:50.685Z,23.70
2017-09-29T12:00:18.268Z,22.63
2017-09-29T12:02:46.643Z,22.37
2017-09-29T12:05:15.015Z,24.37
2017-09-29T12:07:42.629Z,22.60
2017-09-29T12:10:10.243Z,22.20
2017-09-29T12:12:38.608Z,21.47
2017-09-29T12:15:06.207Z,19.00
2017-09-29T12:17:33.849Z,19.73
2017-09-29T12:20:02.200Z,20.10
2017-09-29T12:22:29.768Z,18.30
2017-09-29T12:24:57.316Z,19.00
2017-09-29T12:27:24.870Z,18.33
2017-09-29T12:29:52.424Z,19.00
2017-09-29T12:32:20.004Z,18.93
2017-09-29T12:34:47.584Z,17.83
2017-09-29T12:37:15.150Z,17.70
2017-09-29T12:39:42.788Z,14.70
2017-09-29T12:42:10.388Z,17.70
2017-09-29T12:44:38.757Z,17.43
2017-09-29T12:47:06.993Z,18.07
2017-09-29T12:49:35.506Z,17.90
2017-09-29T12:52:03.056Z,18.77
2017-09-29T12:54:30.611Z,18.83
2017-09-29T12:56:58.205Z,17.00
2017-09-29T12:59:26.527Z,19.03
2017-09-29T13:01:54.087Z,18.63
2017-09-29T13:04:21.644Z,18.63
2017-09-29T13:06:49.211Z,18.17
2017-09-29T13:09:16.749Z,19.80
2017-09-29T13:11:44.304Z,18.00
2017-09-29T13:14:11.846Z,20.07
2017-09-29T13:16:40.182Z,18.70
2017-09-29T13:19:07.719Z,18.40
2017-09-29T13:21:35.295Z,19.50
2017-09-29T13:24:02.837Z,18.20
2017-09-29T13:26:30.437Z,17.60
2017-09-29T13:28:57.996Z,18.60
2017-09-29T13:31:25.573Z,19.07
2017-09-29T13:33:53.113Z,17.37
2017-09-29T13:36:20.695Z,17.83
2017-09-29T13:38:48.250Z,17.50
2017-09-29T13:41:15.822Z,17.87
2017-09-29T13:43:43.403Z,17.77
2017-09-29T13:46:10.938Z,18.47
2017-09-29T13:48:38.470Z,16.43
2017-09-29T13:51:06.003Z,15.93
2017-09-29T13:53:33.531Z,15.27
2017-09-29T13:56:01.067Z,13.50
2017-09-29T13:58:28.647Z,11.13
2017-09-29T14:00:56.175Z,11.20
2017-09-29T14:03:24.502Z,9.73
2017-09-29T14:05:52.035Z,10.90
2017-09-29T14:08:19.610Z,10.40
2017-09-29T14:10:47.138Z,12.23
2017-09-29T14:13:15.435Z,11.83
2017-09-29T14:15:42.974Z,12.53
2017-09-29T14:18:11.273Z,11.90
2017-09-29T14:20:38.811Z,11.77
2017-09-29T14:23:07.106Z,12.17
2017-09-29T14:25:35.404Z,11.13
2017-09-29T14:28:02.952Z,10.30
2017-09-29T14:30:30.483Z,11.17
2017-09-29T14:32:58.015Z,11.20
2017-09-29T14:35:25.574Z,11.30
2017-09-29T14:37:53.106Z,10.60
2017-09-29T14:40:20.659Z,10.87
2017-09-29T14:42:48.200Z,9.50
2017-09-29T14:45:16.527Z,10.03
2017-09-29T14:47:44.055Z,9.50
2017-09-29T14:50:11.608Z,9.03
2017-09-29T14:52:39.141Z,8.90
2017-09-29T14:55:07.571Z,9.60
2017-09-29T14:57:35.098Z,8.97
2017-09-29T15:00:03.390Z,9.40
2017-09-29T15:02:30.918Z,9.20
2017-09-29T15:04:58.442Z,9.57
2017-09-29T15:07:25.970Z,9.63
2017-09-29T15:09:53.495Z,8.97
2017-09-29T15:12:21.014Z,8.50
2017-09-29T15:14:48.543Z,9.73
2017-09-29T15:17:16.835Z,7.80
2017-09-29T15:19:44.358Z,9.40
2017-09-29T15:22:11.885Z,8.60
2017-09-29T15:24:39.411Z,8.70
2017-09-29T15:27:06.962Z,8.77
2017-09-29T15:29:34.495Z,9.07
2017-09-29T15:32:02.047Z,8.37
2017-09-29T15:34:29.570Z,9.93
2017-09-29T15:36:57.123Z,9.10
2017-09-29T15:39:24.651Z,9.00
2017-09-29T15:41:52.990Z,8.77
2017-09-29T15:44:20.514Z,8.73
2017-09-29T15:46:48.036Z,8.70
2017-09-29T15:49:15.562Z,8.33
2017-09-29T15:51:43.094Z,8.20
2017-09-29T15:54:10.632Z,8.87
2017-09-29T15:56:38.926Z,9.53
2017-09-29T15:59:06.450Z,9.67
2017-09-29T16:01:33.970Z,8.30
2017-09-29T16:04:01.523Z,9.23
2017-09-29T16:06:29.431Z,9.70
2017-09-29T16:08:56.986Z,8.97
2017-09-29T16:11:24.530Z,9.70
2017-09-29T16:13:52.106Z,9.03
2017-09-29T16:16:19.671Z,9.10
2017-09-29T16:18:47.202Z,9.63
2017-09-29T16:21:14.738Z,10.30
2017-09-29T16:23:42.291Z,10.10
2017-09-29T16:26:10.587Z,11.83
2017-09-29T16:28:38.125Z,12.30
2017-09-29T16:31:06.443Z,11.60
2017-09-29T16:33:33.987Z,10.87
2017-09-29T16:36:01.551Z,12.73
2017-09-29T16:38:29.085Z,12.10
2017-09-29T16:40:57.408Z,11.30
2017-09-29T16:43:24.951Z,11.20
2017-09-29T16:45:52.511Z,11.33
2017-09-29T16:48:20.722Z,11.60
2017-09-29T16:50:48.328Z,11.83
2017-09-29T16:53:16.628Z,11.17
2017-09-29T16:55:44.159Z,12.00
2017-09-29T16:58:12.528Z,11.27
2017-09-29T17:00:40.847Z,11.70
2017-09-29T17:03:08.415Z,14.07
2017-09-29T17:05:35.942Z,13.90
2017-09-29T17:08:04.265Z,13.07
2017-09-29T17:10:31.798Z,15.57
2017-09-29T17:12:59.374Z,13.97
2017-09-29T17:15:26.908Z,15.37
2017-09-29T17:17:55.230Z,14.00
2017-09-29T17:20:22.771Z,14.30
2017-09-29T17:22:50.321Z,14.43
2017-09-29T17:25:17.867Z,15.70
2017-09-29T17:27:46.180Z,16.17
2017-09-29T17:30:13.770Z,15.90
2017-09-29T17:32:41.310Z,16.37
2017-09-29T17:35:08.878Z,15.27
2017-09-29T17:37:36.415Z,15.40
2017-09-29T17:40:03.976Z,15.93
2017-09-29T17:42:31.529Z,15.90
2017-09-29T17:44:59.092Z,13.90
2017-09-29T17:47:26.626Z,16.33
2017-09-29T17:49:54.935Z,15.93
2017-09-29T17:52:22.496Z,14.30
2017-09-29T17:54:50.058Z,15.70
2017-09-29T17:57:17.590Z,15.00
2017-09-29T17:59:46.487Z,15.13
2017-09-29T18:02:14.018Z,16.17
2017-09-29T18:04:41.580Z,13.20
2017-09-29T18:07:09.158Z,14.20
2017-09-29T18:09:37.479Z,14.50
2017-09-29T18:12:05.088Z,14.40
2017-09-29T18:14:33.447Z,13.27
2017-09-29T18:17:01.050Z,14.77
2017-09-29T18:19:28.611Z,14.27
2017-09-29T18:21:56.152Z,14.63
2017-09-29T18:24:24.458Z,15.83
2017-09-29T18:26:52.019Z,15.93
2017-09-29T18:29:19.568Z,14.97
2017-09-29T18:31:47.890Z,15.53
2017-09-29T18:34:15.422Z,15.83
2017-09-29T18:36:42.954Z,15.70
2017-09-29T18:39:12.166Z,14.67
2017-09-29T18:41:40.476Z,15.53
2017-09-29T18:44:11.824Z,15.00
2017-09-29T18:46:41.722Z,15.50
2017-09-29T18:49:09.405Z,14.70
2017-09-29T18:51:37.784Z,15.60
2017-09-29T18:54:06.102Z,15.27
2017-09-29T18:56:33.774Z,14.70
2017-09-29T18:59:01.333Z,14.20
2017-09-29T19:01:28.984Z,15.20
2017-09-29T19:03:56.563Z,15.47
2017-09-29T19:06:24.104Z,14.30
2017-09-29T19:08:51.696Z,14.70
2017-09-29T19:11:19.242Z,14.47
2017-09-29T19:13:46.816Z,15.50
2017-09-29T19:16:14.379Z,15.80
2017-09-29T19:18:41.959Z,14.20
2017-09-29T19:21:10.319Z,15.03
2017-09-29T19:23:37.880Z,16.03
2017-09-29T19:26:05.431Z,15.70
2017-09-29T19:28:32.991Z,14.57
2017-09-29T19:31:00.584Z,15.07
2017-09-29T19:33:28.159Z,15.37
2017-09-29T19:35:56.508Z,14.70
2017-09-29T19:38:24.127Z,14.33
2017-09-29T19:40:51.680Z,16.43
2017-09-29T19:43:19.235Z,16.33
2017-09-29T19:45:46.802Z,17.80
2017-09-29T19:48:14.423Z,16.80
2017-09-29T19:50:41.967Z,16.07
2017-09-29T19:53:09.526Z,17.30
2017-09-29T19:55:37.070Z,17.77
2017-09-29T19:58:04.674Z,15.73
2017-09-29T20:00:32.230Z,16.97
2017-09-29T20:02:59.825Z,17.30
2017-09-29T20:05:27.384Z,17.83
2017-09-29T20:07:55.726Z,19.90
2017-09-29T20:10:23.270Z,27.10
2017-09-29T20:12:50.818Z,33.37
2017-09-29T20:15:18.367Z,38.10
2017-09-29T20:17:45.912Z,42.33
2017-09-29T20:20:13.453Z,47.70
2017-09-29T20:22:41.802Z,52.43
2017-09-29T20:25:09.371Z,53.93
2017-09-29T20:27:36.921Z,56.97
2017-09-29T20:30:04.496Z,56.37
2017-09-29T20:32:32.038Z,52.07
2017-09-29T20:34:59.618Z,41.93
2017-09-29T20:37:27.151Z,38.90
2017-09-29T20:39:54.730Z,27.33
2017-09-29T20:42:22.300Z,27.20
2017-09-29T20:44:49.855Z,25.00
2017-09-29T20:47:17.386Z,21.60
2017-09-29T20:49:44.919Z,21.30
2017-09-29T20:52:12.474Z,21.73
2017-09-29T20:54:40.781Z,19.63
2017-09-29T20:57:08.306Z,21.57
2017-09-29T20:59:36.620Z,20.07
2017-09-29T21:02:04.155Z,20.43
2017-09-29T21:04:32.459Z,19.90
2017-09-29T21:07:00.024Z,20.73
2017-09-29T21:09:27.554Z,21.23
2017-09-29T21:11:55.874Z,19.83
2017-09-29T21:14:23.415Z,20.10
2017-09-29T21:16:50.975Z,22.40
2017-09-29T21:19:18.510Z,21.20
2017-09-29T21:21:46.827Z,20.47
2017-09-29T21:24:14.355Z,21.90
2017-09-29T21:26:41.892Z,20.33
2017-09-29T21:29:09.446Z,21.23
2017-09-29T21:31:36.974Z,20.27
2017-09-29T21:34:04.528Z,20.77
2017-09-29T21:36:32.060Z,21.80
2017-09-29T21:39:00.525Z,22.53
2017-09-29T21:41:28.824Z,22.73
2017-09-29T21:43:56.399Z,21.20
2017-09-29T21:46:23.935Z,21.60
2017-09-29T21:48:52.545Z,22.07
2017-09-29T21:51:20.079Z,22.07
2017-09-29T21:53:48.385Z,21.30
2017-09-29T21:56:15.914Z,20.97
2017-09-29T21:58:44.214Z,23.00
2017-09-29T22:01:11.771Z,21.80
2017-09-29T22:03:39.309Z,21.53
2017-09-29T22:06:07.627Z,22.40
2017-09-29T22:08:35.168Z,21.80
2017-09-29T22:11:02.723Z,20.17
2017-09-29T22:13:30.249Z,22.53
2017-09-29T22:15:57.802Z,21.70
2017-09-29T22:18:25.387Z,23.33
2017-09-29T22:20:53.720Z,21.63
2017-09-29T22:23:21.249Z,21.93
2017-09-29T22:25:48.801Z,21.97
2017-09-29T22:28:17.103Z,21.07
2017-09-29T22:30:44.686Z,21.40
2017-09-29T22:33:12.219Z,20.83
2017-09-29T22:35:39.755Z,20.57
2017-09-29T22:38:08.050Z,20.30
2017-09-29T22:40:35.583Z,21.37
2017-09-29T22:43:03.906Z,21.30
2017-09-29T22:45:31.447Z,22.10
2017-09-29T22:47:59.003Z,20.10
2017-09-29T22:50:26.535Z,23.03
2017-09-29T22:52:54.091Z,21.90
2017-09-29T22:55:21.619Z,20.60
2017-09-29T22:57:49.174Z,20.77
2017-09-29T23:00:16.710Z,23.17
2017-09-29T23:02:44.275Z,22.33
2017-09-29T23:05:11.807Z,20.30
2017-09-29T23:07:40.106Z,19.70
2017-09-29T23:10:07.635Z,21.30
2017-09-29T23:12:35.167Z,21.00
2017-09-29T23:15:02.723Z,20.07
2017-09-29T23:17:30.255Z,20.70
2017-09-29T23:19:57.810Z,20.10
2017-09-29T23:22:25.341Z,20.17
2017-09-29T23:24:52.894Z,22.03
2017-09-29T23:27:21.121Z,20.60
2017-09-29T23:29:48.679Z,19.97
2017-09-29T23:32:16.211Z,22.00
2017-09-29T23:34:44.526Z,19.40
2017-09-29T23:37:12.066Z,20.00
2017-09-29T23:39:39.623Z,18.97
2017-09-29T23:42:07.158Z,20.33
2017-09-29T23:44:34.692Z,19.43
2017-09-29T23:47:02.235Z,21.40
2017-09-29T23:49:29.770Z,20.10
2017-09-29T23:51:58.067Z,19.53
2017-09-29T23:54:25.604Z,21.90
2017-09-29T23:56:53.140Z,20.17
2017-09-29T23:59:20.685Z,20.70
